Time;durP1;ratioP1;P1;durP2;ratioP2;P2;SDS_P1;SDS_P2;PMS_P1;PMS_P2;Temp;Humidity;BMP_temperature;BMP_pressure;BME280_temperature;BME280_humidity;BME280_pressure;Samples;Min_cycle;Max_cycle;Signal;HPM_P1;HPM_P2
2023/04/22 00:02:04;;;;;;;9.40;7.28;;;;;;;;;;4980683;28;20684;-75
2023/04/22 00:04:30;;;;;;;9.77;7.63;;;;;;;;;;4990205;28;20431;-76
2023/04/22 00:06:56;;;;;;;9.40;8.25;;;;;;;;;;4990205;28;20922;-76
2023/04/22 00:09:22;;;;;;;10.10;8.18;;;;;;;;;;4961869;28;20849;-76
2023/04/22 00:11:48;;;;;;;11.48;9.20;;;;;;;;;;4988368;28;20425;-75
2023/04/22 00:14:14;;;;;;;10.75;8.80;;;;;;;;;;4958093;28;20432;-75
2023/04/22 00:16:40;;;;;;;10.95;8.55;;;;;;;;;;4955639;28;20900;-75
2023/04/22 00:19:06;;;;;;;10.43;8.52;;;;;;;;;;4939711;28;20408;-75
2023/04/22 00:21:32;;;;;;;12.63;9.40;;;;;;;;;;4972025;28;20437;-75
2023/04/22 00:23:58;;;;;;;12.23;10.15;;;;;;;;;;4973987;28;20464;-75
2023/04/22 00:26:24;;;;;;;14.18;9.88;;;;;;;;;;4984446;28;20439;-76
2023/04/22 00:28:50;;;;;;;11.52;9.30;;;;;;;;;;4977450;28;20476;-75
2023/04/22 00:31:16;;;;;;;13.68;10.73;;;;;;;;;;4974484;28;20591;-75
2023/04/22 00:33:43;;;;;;;13.98;10.80;;;;;;;;;;4955792;28;20780;-75
2023/04/22 00:36:09;;;;;;;13.50;11.55;;;;;;;;;;4967121;28;20432;-75
2023/04/22 00:38:35;;;;;;;14.83;12.20;;;;;;;;;;4964536;28;20781;-76
2023/04/22 00:41:01;;;;;;;15.25;11.90;;;10.60;99.90;;;;;;4960992;28;20527;-75
2023/04/22 00:43:27;;;;;;;14.40;11.60;;;;;;;;;;4977815;28;20413;-76
2023/04/22 00:45:53;;;;;;;14.73;11.75;;;;;;;;;;4963226;28;20488;-75
2023/04/22 00:48:20;;;;;;;16.67;11.93;;;;;;;;;;4978363;28;20920;-75
2023/04/22 00:50:46;;;;;;;15.57;12.30;;;;;;;;;;4993325;28;20457;-75
2023/04/22 00:53:12;;;;;;;15.75;13.00;;;;;;;;;;4964866;28;20425;-76
2023/04/22 00:55:38;;;;;;;16.70;12.82;;;;;;;;;;4978684;28;20412;-76
2023/04/22 00:58:05;;;;;;;15.20;12.95;;;;;;;;;;4978073;28;20632;-76
2023/04/22 01:00:31;;;;;;;16.50;12.68;;;;;;;;;;4975741;28;20413;-76
2023/04/22 01:02:57;;;;;;;15.80;12.95;;;;;;;;;;4978597;28;20436;-76
2023/04/22 01:05:24;;;;;;;16.63;13.27;;;10.40;99.90;;;;;;4976164;28;20426;-75
2023/04/22 01:07:50;;;;;;;16.77;13.38;;;;;;;;;;4979060;28;20428;-76
2023/04/22 01:10:16;;;;;;;16.30;13.30;;;;;;;;;;4973570;28;20852;-76
2023/04/22 01:12:42;;;;;;;18.43;14.27;;;;;;;;;;4986130;28;20812;-76
2023/04/22 01:15:09;;;;;;;17.67;13.60;;;;;;;;;;4980842;28;20550;-76
2023/04/22 01:17:36;;;;;;;18.88;14.95;;;;;;;;;;4972599;28;20417;-74
2023/04/22 01:20:04;;;;;;;17.63;13.77;;;;;;;;;;4960727;28;20446;-75
2023/04/22 01:22:36;;;;;;;20.02;15.77;;;10.00;99.90;;;;;;4962811;28;20467;-75
2023/04/22 01:25:02;;;;;;;18.05;15.35;;;;;;;;;;4981551;28;20461;-75
2023/04/22 01:27:28;;;;;;;21.63;15.73;;;;;;;;;;4990672;28;20410;-75
2023/04/22 01:29:54;;;;;;;21.27;16.52;;;;;;;;;;4967126;28;20424;-75
2023/04/22 01:32:20;;;;;;;20.83;16.80;;;;;;;;;;4976981;28;20871;-75
2023/04/22 01:34:47;;;;;;;22.70;17.17;;;;;;;;;;4960841;28;20456;-75
2023/04/22 01:37:13;;;;;;;23.33;17.80;;;;;;;;;;4972802;28;20401;-75
2023/04/22 01:39:39;;;;;;;24.10;17.40;;;;;;;;;;4968757;28;20517;-74
2023/04/22 01:42:05;;;;;;;19.10;16.23;;;;;;;;;;4972904;28;20425;-75
2023/04/22 01:44:31;;;;;;;20.55;16.52;;;;;;;;;;4979101;28;20435;-75
2023/04/22 01:46:57;;;;;;;20.60;16.40;;;;;;;;;;4987317;28;20545;-75
2023/04/22 01:49:23;;;;;;;19.67;15.85;;;;;;;;;;4964443;28;20489;-75
2023/04/22 01:51:49;;;;;;;21.40;16.55;;;;;;;;;;4976776;28;21992;-75
2023/04/22 01:54:15;;;;;;;21.73;16.33;;;;;;;;;;4980489;28;20431;-76
2023/04/22 01:56:42;;;;;;;21.73;17.42;;;;;;;;;;4994733;28;20416;-75
2023/04/22 01:59:09;;;;;;;21.10;17.20;;;;;;;;;;4982163;28;20990;-75
2023/04/22 02:01:35;;;;;;;20.02;16.73;;;;;;;;;;4982399;28;20472;-75
2023/04/22 02:04:01;;;;;;;20.48;17.13;;;;;;;;;;4960602;28;20426;-75
2023/04/22 02:06:27;;;;;;;20.63;17.13;;;;;;;;;;4986346;28;20491;-75
2023/04/22 02:08:53;;;;;;;24.23;18.23;;;;;;;;;;4977043;28;20474;-75
2023/04/22 02:11:20;;;;;;;23.27;18.65;;;;;;;;;;4982312;28;20428;-75
2023/04/22 02:13:46;;;;;;;23.33;18.85;;;;;;;;;;4961182;28;20461;-75
2023/04/22 02:16:12;;;;;;;22.42;18.85;;;;;;;;;;4974900;28;20425;-75
2023/04/22 02:18:38;;;;;;;22.75;18.80;;;;;;;;;;4960145;28;20426;-75
2023/04/22 02:21:04;;;;;;;24.65;19.80;;;;;;;;;;4957732;28;20514;-75
2023/04/22 02:23:30;;;;;;;26.77;21.17;;;;;;;;;;4990917;28;20432;-75
2023/04/22 02:25:56;;;;;;;26.95;21.20;;;;;;;;;;4969194;28;20442;-75
2023/04/22 02:28:22;;;;;;;25.70;21.08;;;;;;;;;;4991883;28;20422;-75
2023/04/22 02:30:49;;;;;;;30.33;22.38;;;;;;;;;;4977950;28;20445;-75
2023/04/22 02:33:15;;;;;;;29.00;22.55;;;;;;;;;;4969974;28;20433;-75
2023/04/22 02:35:41;;;;;;;30.05;23.10;;;;;;;;;;4977961;28;20444;-74
2023/04/22 02:38:07;;;;;;;29.57;23.13;;;;;;;;;;4977049;28;20836;-74
2023/04/22 02:40:33;;;;;;;28.42;22.08;;;;;;;;;;4976314;28;20430;-75
2023/04/22 02:42:59;;;;;;;29.70;23.17;;;;;;;;;;4938794;28;20424;-75
2023/04/22 02:45:26;;;;;;;31.85;23.00;;;;;;;;;;4972653;28;20434;-76
2023/04/22 02:47:52;;;;;;;29.60;23.80;;;;;;;;;;4959696;28;20464;-76
2023/04/22 02:50:18;;;;;;;31.27;23.73;;;;;;;;;;4960979;28;20410;-77
2023/04/22 02:52:44;;;;;;;29.90;23.58;;;;;;;;;;4947289;28;20429;-76
2023/04/22 02:55:13;;;;;;;32.28;24.25;;;;;;;;;;4957844;28;20477;-76
2023/04/22 02:57:39;;;;;;;30.15;23.75;;;;;;;;;;4987749;28;20432;-76
2023/04/22 03:00:06;;;;;;;33.15;24.45;;;;;;;;;;4979397;28;20405;-77
2023/04/22 03:02:32;;;;;;;32.53;24.30;;;;;;;;;;4995877;28;20411;-76
2023/04/22 03:04:59;;;;;;;34.65;25.52;;;;;;;;;;4976867;28;20413;-76
2023/04/22 03:07:25;;;;;;;31.60;24.70;;;;;;;;;;4963223;28;20436;-76
2023/04/22 03:09:52;;;;;;;33.95;24.95;;;;;;;;;;4979396;28;20434;-76
2023/04/22 03:12:18;;;;;;;32.47;25.40;;;;;;;;;;4968925;28;20433;-76
2023/04/22 03:14:44;;;;;;;31.63;25.25;;;;;;;;;;4947285;28;20428;-75
2023/04/22 03:17:10;;;;;;;33.90;24.33;;;;;;;;;;4949563;28;20413;-79
2023/04/22 03:19:36;;;;;;;31.73;25.33;;;;;;;;;;4974592;28;21007;-79
2023/04/22 03:22:02;;;;;;;34.60;26.13;;;;;;;;;;4984438;28;20777;-79
2023/04/22 03:24:28;;;;;;;34.27;26.77;;;;;;;;;;4959906;28;20471;-78
2023/04/22 03:26:54;;;;;;;36.30;25.77;;;;;;;;;;4959663;28;20521;-78
2023/04/22 03:29:20;;;;;;;33.38;25.38;;;;;;;;;;4959750;28;20394;-80
2023/04/22 03:31:46;;;;;;;32.38;25.10;;;;;;;;;;4973297;28;20413;-79
2023/04/22 03:34:13;;;;;;;33.33;24.77;;;;;;;;;;4978336;28;20567;-79
2023/04/22 03:36:39;;;;;;;34.00;25.60;;;;;;;;;;4993739;28;20428;-79
2023/04/22 03:39:05;;;;;;;33.60;25.13;;;;;;;;;;4973814;28;20453;-79
2023/04/22 03:41:31;;;;;;;35.20;25.50;;;;;;;;;;4976100;28;20429;-79
2023/04/22 03:43:57;;;;;;;33.28;25.33;;;;;;;;;;4958212;28;20517;-79
2023/04/22 03:46:23;;;;;;;32.63;24.60;;;;;;;;;;4959912;28;20414;-79
2023/04/22 03:48:49;;;;;;;32.40;24.60;;;;;;;;;;4974498;28;20561;-79
2023/04/22 03:51:15;;;;;;;31.40;23.58;;;;;;;;;;4988554;28;20423;-79
2023/04/22 03:53:41;;;;;;;32.65;24.27;;;;;;;;;;4994640;28;20432;-80
2023/04/22 03:56:07;;;;;;;30.48;23.92;;;;;;;;;;4969647;28;20510;-80
2023/04/22 03:58:33;;;;;;;31.60;23.70;;;;;;;;;;4954490;28;20439;-80
2023/04/22 04:00:59;;;;;;;31.67;24.65;;;;;;;;;;4947247;28;20410;-80
2023/04/22 04:03:25;;;;;;;31.70;24.45;;;;;;;;;;4975311;28;20414;-80
2023/04/22 04:05:51;;;;;;;32.15;25.00;;;;;;;;;;4961700;28;20432;-79
2023/04/22 04:08:17;;;;;;;30.20;24.25;;;;;;;;;;4975397;28;20434;-79
2023/04/22 04:10:44;;;;;;;31.27;23.70;;;;;;;;;;4959695;28;20523;-79
2023/04/22 04:13:10;;;;;;;29.65;23.92;;;;;;;;;;4956804;28;20427;-79
2023/04/22 04:15:36;;;;;;;30.23;23.77;;;;;;;;;;4993149;28;20428;-75
2023/04/22 04:18:03;;;;;;;28.67;23.25;;;;;;;;;;4990991;28;20426;-75
2023/04/22 04:20:29;;;;;;;32.53;24.33;;;;;;;;;;4958857;28;20426;-75
2023/04/22 04:22:55;;;;;;;27.75;22.73;;;;;;;;;;4954359;28;20415;-75
2023/04/22 04:25:21;;;;;;;29.02;22.10;;;;;;;;;;4969883;28;20489;-75
2023/04/22 04:27:49;;;;;;;30.20;23.35;;;;;;;;;;4985933;28;20766;-75
2023/04/22 04:30:15;;;;;;;25.98;21.95;;;;;;;;;;4964154;28;20450;-76
2023/04/22 04:32:41;;;;;;;28.42;22.30;;;;;;;;;;4973946;28;20435;-75
2023/04/22 04:35:08;;;;;;;27.52;21.08;;;;;;;;;;4943372;28;20576;-75
2023/04/22 04:37:35;;;;;;;27.00;21.80;;;;;;;;;;4957867;28;20913;-75
2023/04/22 04:40:02;;;;;;;28.57;21.93;;;;;;;;;;4974189;28;20512;-76
2023/04/22 04:42:29;;;;;;;29.77;22.35;;;;;;;;;;4974739;28;20476;-75
2023/04/22 04:44:57;;;;;;;27.30;21.30;;;;;;;;;;4989428;28;20770;-74
2023/04/22 04:47:23;;;;;;;28.42;21.90;;;;;;;;;;4981676;28;20428;-74
2023/04/22 04:49:52;;;;;;;27.92;21.30;;;;;;;;;;4978200;28;20405;-75
2023/04/22 04:52:18;;;;;;;26.33;21.77;;;;;;;;;;4976754;28;20439;-75
2023/04/22 04:54:44;;;;;;;26.97;21.40;;;;;;;;;;4959376;28;20786;-75
2023/04/22 04:57:10;;;;;;;27.70;21.42;;;;;;;;;;4959093;28;20958;-76
2023/04/22 04:59:36;;;;;;;27.20;21.08;;;;;;;;;;4965454;28;20897;-75
2023/04/22 05:02:02;;;;;;;25.57;21.23;;;;;;;;;;4969102;28;20510;-76
2023/04/22 05:04:28;;;;;;;24.08;19.58;;;;;;;;;;4962032;28;20424;-75
2023/04/22 05:06:54;;;;;;;25.60;19.25;;;;;;;;;;4950007;28;20438;-75
2023/04/22 05:09:20;;;;;;;23.90;18.52;;;;;;;;;;4958221;28;20410;-75
2023/04/22 05:11:46;;;;;;;22.85;18.70;;;;;;;;;;4938018;28;20773;-75
2023/04/22 05:14:12;;;;;;;24.60;18.80;;;;;;;;;;4970195;28;20426;-75
2023/04/22 05:16:38;;;;;;;25.15;19.40;;;;;;;;;;4939590;28;20415;-75
2023/04/22 05:19:04;;;;;;;23.10;18.83;;;;;;;;;;4960840;28;20482;-76
2023/04/22 05:21:31;;;;;;;24.33;19.55;;;;;;;;;;4971576;28;20893;-75
2023/04/22 05:23:57;;;;;;;24.77;19.40;;;;;;;;;;4991692;28;20424;-75
2023/04/22 05:26:23;;;;;;;25.42;18.90;;;;;;;;;;4959914;28;20434;-75
2023/04/22 05:28:49;;;;;;;23.83;19.10;;;;;;;;;;4967592;28;20432;-75
2023/04/22 05:31:15;;;;;;;26.63;19.83;;;;;;;;;;4975427;28;20425;-76
2023/04/22 05:33:41;;;;;;;24.15;19.10;;;;;;;;;;4978167;28;20433;-80
2023/04/22 05:36:07;;;;;;;23.20;19.95;;;;;;;;;;4960682;28;20452;-79
2023/04/22 05:38:33;;;;;;;26.95;20.20;;;;;;;;;;4974936;28;20502;-79
2023/04/22 05:40:59;;;;;;;26.40;20.85;;;;;;;;;;4983078;28;20436;-80
2023/04/22 05:43:25;;;;;;;26.80;21.00;;;;;;;;;;4962931;28;20426;-80
2023/04/22 05:45:51;;;;;;;29.10;21.65;;;;;;;;;;4966811;28;20763;-82
2023/04/22 05:48:17;;;;;;;26.17;21.00;;;;;;;;;;4982730;28;20485;-81
2023/04/22 05:50:43;;;;;;;25.77;20.60;;;;;;;;;;4961748;28;20936;-80
2023/04/22 05:53:10;;;;;;;28.92;21.30;;;;;;;;;;4979278;28;20430;-80
2023/04/22 05:55:36;;;;;;;27.67;20.50;;;;;;;;;;4978666;28;20433;-80
2023/04/22 05:58:02;;;;;;;26.85;21.58;;;;;;;;;;4982565;28;20422;-79
2023/04/22 06:00:28;;;;;;;25.27;20.98;;;;;;;;;;4974832;28;20428;-82
2023/04/22 06:02:54;;;;;;;23.92;19.60;;;;;;;;;;4964681;28;20476;-79
2023/04/22 06:05:20;;;;;;;26.92;21.05;;;;;;;;;;4979681;28;20449;-80
2023/04/22 06:07:46;;;;;;;24.02;20.08;;;;;;;;;;4961583;28;20426;-81
2023/04/22 06:10:12;;;;;;;28.50;19.85;;;;;;;;;;4985130;28;20471;-80
2023/04/22 06:12:38;;;;;;;28.95;22.50;;;;;;;;;;4980836;28;20439;-81
2023/04/22 06:15:05;;;;;;;24.20;19.98;;;;;;;;;;4971931;28;20426;-81
2023/04/22 06:17:31;;;;;;;25.35;20.67;;;;;;;;;;4981416;28;20871;-81
2023/04/22 06:19:57;;;;;;;26.35;20.05;;;;;;;;;;4960321;28;20441;-81
2023/04/22 06:22:23;;;;;;;22.35;18.63;;;;;;;;;;4967886;28;20797;-76
2023/04/22 06:24:49;;;;;;;24.65;20.20;;;;;;;;;;4977776;28;20447;-76
2023/04/22 06:27:15;;;;;;;23.52;19.92;;;;;;;;;;4964550;28;20425;-76
2023/04/22 06:29:41;;;;;;;23.85;19.40;;;;;;;;;;4974676;28;20455;-76
2023/04/22 06:32:07;;;;;;;25.90;20.52;;;;;;;;;;4971512;28;20997;-76
2023/04/22 06:34:33;;;;;;;24.58;19.70;;;;;;;;;;4982578;28;20433;-77
2023/04/22 06:36:59;;;;;;;23.83;19.45;;;;;;;;;;4972267;28;20422;-77
2023/04/22 06:39:25;;;;;;;23.92;19.20;;;;;;;;;;4992200;28;20475;-77
2023/04/22 06:41:51;;;;;;;23.30;19.20;;;;;;;;;;4953732;28;20427;-77
2023/04/22 06:44:17;;;;;;;22.67;18.73;;;;;;;;;;4982707;28;20425;-76
2023/04/22 06:46:44;;;;;;;23.43;19.13;;;;;;;;;;4960596;28;20897;-76
2023/04/22 06:49:10;;;;;;;23.87;19.23;;;;;;;;;;4959468;28;20434;-76
2023/04/22 06:51:36;;;;;;;25.13;19.23;;;;;;;;;;4957811;28;20446;-77
2023/04/22 06:54:03;;;;;;;23.45;19.20;;;;;;;;;;4962315;28;20843;-76
2023/04/22 06:56:29;;;;;;;21.50;18.67;;;;;;;;;;4979103;28;20508;-77
2023/04/22 06:58:55;;;;;;;26.23;19.95;;;;;;;;;;4965845;28;20431;-77
2023/04/22 07:01:21;;;;;;;21.63;17.98;;;;;;;;;;4984859;28;20427;-76
2023/04/22 07:03:47;;;;;;;25.53;19.63;;;;;;;;;;4985590;28;20933;-77
2023/04/22 07:06:13;;;;;;;24.70;19.08;;;;;;;;;;4962768;28;20444;-77
2023/04/22 07:08:39;;;;;;;22.67;18.38;;;;;;;;;;4959907;28;20423;-76
2023/04/22 07:11:06;;;;;;;21.10;18.17;;;;;;;;;;4977340;28;20759;-76
2023/04/22 07:13:33;;;;;;;20.38;16.98;;;;;;;;;;4973114;28;20435;-76
2023/04/22 07:15:59;;;;;;;21.63;17.50;;;11.10;99.90;;;;;;4976879;28;20949;-77
2023/04/22 07:18:25;;;;;;;22.00;17.13;;;;;;;;;;4972453;28;20521;-76
2023/04/22 07:20:51;;;;;;;19.42;16.42;;;;;;;;;;4955969;28;20526;-77
2023/04/22 07:23:18;;;;;;;21.77;16.50;;;;;;;;;;4980810;28;20437;-77
2023/04/22 07:25:44;;;;;;;19.23;15.75;;;;;;;;;;4960857;28;20759;-76
2023/04/22 07:28:10;;;;;;;19.63;16.47;;;;;;;;;;4977735;28;20426;-76
2023/04/22 07:30:36;;;;;;;20.80;17.00;;;;;;;;;;4976310;28;20444;-76
2023/04/22 07:33:02;;;;;;;19.23;16.55;;;;;;;;;;4975186;28;20752;-76
2023/04/22 07:35:28;;;;;;;19.92;16.20;;;;;;;;;;4975698;28;20422;-76
2023/04/22 07:38:01;;;;;;;18.73;15.48;;;;;;;;;;4959784;28;20461;-78
2023/04/22 07:40:27;;;;;;;20.43;18.17;;;;;;;;;;4974852;28;20418;-76
2023/04/22 07:42:53;;;;;;;21.20;17.55;;;;;;;;;;4974198;28;20410;-77
2023/04/22 07:45:19;;;;;;;19.63;16.98;;;;;;;;;;4968091;28;20427;-76
2023/04/22 07:47:45;;;;;;;19.03;16.00;;;;;;;;;;4987306;28;20790;-77
2023/04/22 07:50:11;;;;;;;18.50;15.32;;;;;;;;;;4969964;28;20450;-77
2023/04/22 07:52:37;;;;;;;19.25;15.90;;;;;;;;;;4970421;28;20436;-77
2023/04/22 07:55:03;;;;;;;22.58;16.38;;;;;;;;;;4973096;28;20446;-78
2023/04/22 07:57:31;;;;;;;18.30;14.52;;;;;;;;;;4959311;28;20493;-79
2023/04/22 07:59:58;;;;;;;16.70;14.75;;;;;;;;;;4958296;28;20950;-79
2023/04/22 08:02:24;;;;;;;17.17;13.83;;;;;;;;;;4960231;28;20570;-77
2023/04/22 08:04:50;;;;;;;17.88;14.50;;;;;;;;;;4976369;28;20471;-78
2023/04/22 08:07:16;;;;;;;18.67;14.48;;;;;;;;;;4962904;28;20427;-77
2023/04/22 08:09:42;;;;;;;18.27;15.37;;;;;;;;;;4966799;28;20461;-77
2023/04/22 08:12:08;;;;;;;16.88;14.70;;;;;;;;;;4983168;28;20481;-77
2023/04/22 08:14:34;;;;;;;17.25;15.10;;;;;;;;;;4966859;28;20430;-77
2023/04/22 08:17:00;;;;;;;16.88;15.13;;;;;;;;;;4969398;28;20422;-77
2023/04/22 08:19:26;;;;;;;18.65;15.32;;;;;;;;;;4933937;28;20428;-78
2023/04/22 08:21:53;;;;;;;17.38;15.30;;;;;;;;;;4979596;28;20838;-78
2023/04/22 08:24:19;;;;;;;17.45;15.30;;;;;;;;;;4971109;28;20786;-78
2023/04/22 08:26:45;;;;;;;18.20;15.23;;;;;;;;;;4961326;28;20426;-78
2023/04/22 08:29:11;;;;;;;17.83;15.13;;;;;;;;;;4968979;28;20443;-78
2023/04/22 08:31:37;;;;;;;18.98;15.60;;;;;;;;;;4967209;28;20414;-79
2023/04/22 08:34:03;;;;;;;18.38;15.02;;;;;;;;;;4975432;28;20438;-78
2023/04/22 08:36:30;;;;;;;17.57;15.67;;;;;;;;;;4962703;28;20457;-78
2023/04/22 08:38:56;;;;;;;15.55;13.65;;;;;;;;;;4962253;28;20945;-78
2023/04/22 08:41:25;;;;;;;16.88;14.02;;;;;;;;;;4974600;28;20454;-78
2023/04/22 08:43:55;;;;;;;17.00;14.00;;;13.90;99.90;;;;;;4965746;28;20953;-78
2023/04/22 08:46:24;;;;;;;17.02;13.98;;;;;;;;;;4973966;28;20513;-78
2023/04/22 08:48:50;;;;;;;18.57;14.40;;;;;;;;;;4998346;28;20428;-77
2023/04/22 08:51:17;;;;;;;16.80;13.38;;;;;;;;;;4975409;28;20422;-77
2023/04/22 08:53:43;;;;;;;16.02;13.73;;;14.50;99.90;;;;;;4988084;28;20421;-76
2023/04/22 08:56:12;;;;;;;18.53;13.63;;;14.40;99.90;;;;;;4971615;28;20961;-78
2023/04/22 08:58:39;;;;;;;14.98;13.25;;;;;;;;;;4965620;28;20936;-78
2023/04/22 09:01:06;;;;;;;15.70;12.90;;;;;;;;;;4982306;28;20422;-76
2023/04/22 09:03:34;;;;;;;15.48;13.07;;;14.80;99.90;;;;;;4955691;28;20424;-77
2023/04/22 09:06:01;;;;;;;14.40;12.20;;;;;;;;;;4982162;28;20428;-78
2023/04/22 09:08:28;;;;;;;14.70;12.43;;;;;;;;;;4954492;28;20431;-77
2023/04/22 09:10:54;;;;;;;14.70;12.23;;;;;;;;;;4976411;28;20792;-78
2023/04/22 09:13:20;;;;;;;13.40;12.00;;;;;;;;;;4981454;28;20424;-79
2023/04/22 09:15:46;;;;;;;14.45;12.13;;;15.50;99.90;;;;;;4958957;28;20427;-79
2023/04/22 09:18:17;;;;;;;13.55;11.65;;;15.40;99.90;;;;;;4978682;28;20503;-78
2023/04/22 09:20:44;;;;;;;13.18;10.93;;;;;;;;;;4984008;28;20441;-78
2023/04/22 09:23:12;;;;;;;14.70;11.43;;;;;;;;;;4955098;28;20436;-78
2023/04/22 09:25:38;;;;;;;12.82;10.85;;;;;;;;;;4962134;28;20432;-78
2023/04/22 09:28:04;;;;;;;13.27;10.40;;;;;;;;;;4963973;28;20453;-78
2023/04/22 09:30:31;;;;;;;12.52;10.40;;;16.30;99.90;;;;;;4960770;28;20422;-78
2023/04/22 09:33:01;;;;;;;11.95;10.38;;;;;;;;;;4956370;28;20437;-80
2023/04/22 09:35:29;;;;;;;11.20;9.83;;;17.00;99.90;;;;;;4951042;28;20566;-79
2023/04/22 09:37:55;;;;;;;11.70;10.37;;;16.50;99.90;;;;;;4978877;28;20539;-79
2023/04/22 09:40:21;;;;;;;13.23;10.63;;;;;;;;;;4975654;28;20447;-79
2023/04/22 09:42:49;;;;;;;12.35;10.60;;;16.30;99.90;;;;;;4971648;28;20454;-78
2023/04/22 09:45:37;;;;;;;12.02;10.73;;;16.30;99.90;;;;;;4953145;28;20941;-78
2023/04/22 09:48:10;;;;;;;13.30;10.90;;;16.30;99.90;;;;;;4978028;28;20438;-78
2023/04/22 09:50:37;;;;;;;13.98;10.85;;;;;;;;;;4972301;28;20982;-77
2023/04/22 09:53:04;;;;;;;13.38;11.10;;;;;;;;;;4966874;28;20426;-77
2023/04/22 09:55:31;;;;;;;14.53;11.53;;;;;;;;;;4967762;28;20505;-77
2023/04/22 09:57:57;;;;;;;13.30;11.10;;;;;;;;;;4956019;28;20924;-77
2023/04/22 10:00:25;;;;;;;13.13;10.60;;;;;;;;;;4967712;28;20426;-77
2023/04/22 10:02:51;;;;;;;13.38;10.05;;;;;;;;;;4970551;28;20484;-80
2023/04/22 10:05:17;;;;;;;12.15;10.10;;;;;;;;;;4968593;28;20418;-78
2023/04/22 10:07:44;;;;;;;11.23;9.50;;;;;;;;;;4968034;28;20504;-78
2023/04/22 10:10:10;;;;;;;12.75;9.80;;;;;;;;;;4976154;28;20438;-78
2023/04/22 10:12:36;;;;;;;12.00;10.70;;;;;;;;;;4991202;28;20789;-77
2023/04/22 10:15:06;;;;;;;10.65;9.55;;;;;;;;;;4967553;28;20482;-78
2023/04/22 10:17:33;;;;;;;10.27;9.18;;;;;;;;;;4968150;28;20426;-79
2023/04/22 10:20:06;;;;;;;11.52;9.77;;;;;;;;;;4973919;28;20472;-74
2023/04/22 10:22:33;;;;;;;9.68;8.43;;;17.90;99.90;;;;;;4988182;28;20525;-74
2023/04/22 10:24:59;;;;;;;11.52;8.25;;;;;;;;;;4983769;28;20434;-75
2023/04/22 10:27:25;;;;;;;10.07;8.50;;;;;;;;;;4967477;28;20992;-77
2023/04/22 10:29:51;;;;;;;10.40;8.30;;;;;;;;;;4975540;28;20767;-78
2023/04/22 10:32:17;;;;;;;12.27;9.43;;;;;;;;;;4970195;28;20418;-78
2023/04/22 10:34:45;;;;;;;10.48;8.10;;;;;;;;;;4979410;28;20458;-77
2023/04/22 10:37:12;;;;;;;9.30;7.82;;;;;;;;;;4980395;28;20831;-77
2023/04/22 10:39:42;;;;;;;11.77;8.30;;;;;;;;;;4976521;28;20937;-78
2023/04/22 10:42:09;;;;;;;9.48;8.35;;;;;;;;;;4983081;28;20435;-77
2023/04/22 10:44:46;;;;;;;9.05;7.88;;;;;;;;;;4975615;28;20441;-77
2023/04/22 10:47:23;;;;;;;11.23;8.20;;;;;;;;;;4979265;28;20520;-78
2023/04/22 10:49:50;;;;;;;10.00;8.00;;;19.50;99.90;;;;;;4974021;28;20809;-78
2023/04/22 10:52:29;;;;;;;10.15;8.00;;;;;;;;;;4974511;28;20429;-78
2023/04/22 10:54:56;;;;;;;11.27;8.52;;;;;;;;;;4980609;28;20487;-79
2023/04/22 10:57:22;;;;;;;15.73;8.40;;;;;;;;;;4959458;28;20431;-78
2023/04/22 10:59:52;;;;;;;12.30;7.47;;;19.20;99.90;;;;;;4955988;28;20462;-79
2023/04/22 11:02:19;;;;;;;9.35;8.38;;;;;;;;;;4961963;28;20776;-79
2023/04/22 11:04:45;;;;;;;9.10;7.80;;;;;;;;;;4973921;28;20525;-78
2023/04/22 11:07:26;;;;;;;11.02;7.47;;;;;;;;;;4970959;28;20488;-78
2023/04/22 11:10:14;;;;;;;9.70;7.43;;;19.50;99.90;;;;;;4972762;28;20429;-79
2023/04/22 11:12:41;;;;;;;8.88;7.22;;;;;;;;;;4960324;28;20915;-77
2023/04/22 11:15:07;;;;;;;9.65;7.68;;;;;;;;;;4952980;28;20437;-77
2023/04/22 11:17:34;;;;;;;8.38;7.47;;;;;;;;;;4991320;28;20421;-78
2023/04/22 11:20:01;;;;;;;8.05;7.00;;;19.40;99.90;;;;;;4983760;28;20408;-78
2023/04/22 11:22:27;;;;;;;8.80;7.35;;;;;;;;;;4973197;28;20454;-79
2023/04/22 11:24:57;;;;;;;9.82;7.57;;;;;;;;;;4973767;28;20917;-77
2023/04/22 11:27:26;;;;;;;8.82;6.95;;;19.70;99.90;;;;;;4971865;28;20443;-79
2023/04/22 11:30:02;;;;;;;10.60;7.78;;;;;;;;;;4971444;28;20904;-79
2023/04/22 11:32:29;;;;;;;9.85;7.97;;;;;;;;;;4958123;28;20422;-80
2023/04/22 11:34:55;;;;;;;10.30;7.78;;;;;;;;;;4959579;28;20430;-79
2023/04/22 11:37:21;;;;;;;9.00;7.57;;;;;;;;;;4969114;28;20515;-80
2023/04/22 11:39:50;;;;;;;10.40;7.88;;;;;;;;;;4959557;28;20454;-80
2023/04/22 11:42:21;;;;;;;10.03;7.83;;;;;;;;;;4990150;28;20438;-78
2023/04/22 11:44:47;;;;;;;10.20;7.90;;;;;;;;;;4969778;28;20426;-79
2023/04/22 11:47:13;;;;;;;9.90;8.23;;;;;;;;;;4978606;28;20421;-79
2023/04/22 11:49:39;;;;;;;9.73;8.00;;;;;;;;;;4982429;28;20453;-78
2023/04/22 11:52:05;;;;;;;8.40;7.22;;;;;;;;;;4976846;28;20415;-78
2023/04/22 11:54:36;;;;;;;9.95;7.47;;;20.20;99.90;;;;;;4992341;28;20515;-78
2023/04/22 11:57:07;;;;;;;9.82;7.88;;;20.30;99.90;;;;;;5004580;28;20425;-78
2023/04/22 11:59:33;;;;;;;9.85;7.47;;;;;;;;;;4984530;28;20445;-79
2023/04/22 12:02:00;;;;;;;12.73;8.13;;;;;;;;;;4992961;28;20491;-79
2023/04/22 12:04:26;;;;;;;9.93;7.97;;;;;;;;;;4970436;28;21054;-79
2023/04/22 12:06:52;;;;;;;9.75;8.30;;;;;;;;;;4966409;28;20430;-80
2023/04/22 12:09:18;;;;;;;10.00;8.50;;;;;;;;;;4986735;28;20436;-80
2023/04/22 12:11:45;;;;;;;9.43;8.43;;;;;;;;;;5003555;28;20479;-79
2023/04/22 12:14:11;;;;;;;12.88;8.45;;;;;;;;;;4977702;28;20435;-80
2023/04/22 12:16:41;;;;;;;9.60;8.02;;;;;;;;;;4992380;28;20427;-79
2023/04/22 12:19:07;;;;;;;9.88;8.35;;;;;;;;;;4973976;28;20428;-79
2023/04/22 12:21:33;;;;;;;9.60;8.52;;;;;;;;;;4977944;28;20438;-79
2023/04/22 12:24:03;;;;;;;11.27;8.90;;;;;;;;;;4958475;28;20441;-79
2023/04/22 12:26:29;;;;;;;10.23;8.57;;;;;;;;;;4970531;28;20459;-78
2023/04/22 12:28:59;;;;;;;14.38;8.27;;;20.20;99.90;;;;;;4959682;28;20448;-79
2023/04/22 12:31:26;;;;;;;13.05;9.10;;;;;;;;;;4959958;28;20484;-79
2023/04/22 12:33:53;;;;;;;11.20;8.98;;;;;;;;;;4970987;28;20433;-79
2023/04/22 12:36:22;;;;;;;10.00;7.80;;;;;;;;;;4980736;28;20786;-80
2023/04/22 12:38:48;;;;;;;9.63;8.63;;;;;;;;;;4959185;28;20436;-79
2023/04/22 12:41:15;;;;;;;11.32;8.57;;;;;;;;;;4983459;28;20505;-79
2023/04/22 12:43:41;;;;;;;12.15;8.15;;;;;;;;;;4971752;28;20509;-80
2023/04/22 12:46:08;;;;;;;11.57;7.90;;;20.00;99.90;;;;;;4939998;28;20778;-79
2023/04/22 12:48:36;;;;;;;11.32;8.32;;;;;;;;;;4961639;28;20443;-79
2023/04/22 12:51:02;;;;;;;9.85;7.97;;;;;;;;;;4955792;28;20426;-79
2023/04/22 12:53:28;;;;;;;10.20;8.50;;;;;;;;;;4975437;28;20436;-79
2023/04/22 12:55:54;;;;;;;10.55;8.02;;;;;;;;;;4982593;28;20418;-79
2023/04/22 12:58:21;;;;;;;14.77;8.95;;;;;;;;;;4968331;28;20488;-80
2023/04/22 13:00:47;;;;;;;13.60;8.40;;;;;;;;;;4984527;28;20478;-79
2023/04/22 13:03:13;;;;;;;11.47;7.90;;;;;;;;;;4973782;28;20444;-79
2023/04/22 13:05:39;;;;;;;9.13;8.13;;;;;;;;;;4990492;28;20501;-80
2023/04/22 13:08:05;;;;;;;10.48;8.20;;;;;;;;;;4987099;28;20486;-79
2023/04/22 13:10:31;;;;;;;11.07;8.40;;;;;;;;;;4955346;28;20430;-79
2023/04/22 13:12:58;;;;;;;11.80;8.67;;;;;;;;;;4980220;28;21013;-81
2023/04/22 13:15:25;;;;;;;11.98;8.95;;;;;;;;;;4974435;28;20527;-79
2023/04/22 13:17:51;;;;;;;10.35;8.82;;;;;;;;;;4960939;28;20481;-79
2023/04/22 13:20:18;;;;;;;12.50;9.45;;;;;;;;;;4957724;28;20430;-80
2023/04/22 13:22:46;;;;;;;10.55;9.18;;;;;;;;;;4970921;28;20424;-80
2023/04/22 13:25:12;;;;;;;12.02;8.82;;;;;;;;;;4972999;28;20426;-79
2023/04/22 13:27:38;;;;;;;10.20;8.60;;;;;;;;;;4938521;28;20430;-80
2023/04/22 13:30:05;;;;;;;11.25;8.45;;;;;;;;;;4957888;28;20478;-81
2023/04/22 13:32:31;;;;;;;11.63;8.70;;;;;;;;;;4969963;28;20512;-80
2023/04/22 13:34:57;;;;;;;9.70;8.32;;;;;;;;;;4968967;28;20425;-80
2023/04/22 13:37:23;;;;;;;12.85;8.82;;;;;;;;;;4973838;28;20417;-80
2023/04/22 13:39:50;;;;;;;11.02;8.77;;;19.50;99.90;;;;;;4952574;28;20459;-78
2023/04/22 13:42:17;;;;;;;11.70;9.18;;;;;;;;;;4959850;28;20424;-79
2023/04/22 13:44:46;;;;;;;11.35;8.27;;;;;;;;;;4954231;28;20520;-80
2023/04/22 13:47:12;;;;;;;11.13;9.13;;;;;;;;;;4957042;28;20867;-81
2023/04/22 13:49:38;;;;;;;10.43;8.57;;;;;;;;;;4947859;28;20485;-80
2023/04/22 13:52:04;;;;;;;11.80;8.52;;;;;;;;;;4964088;28;20422;-81
2023/04/22 13:54:30;;;;;;;11.65;8.88;;;;;;;;;;4976858;28;20425;-80
2023/04/22 13:56:56;;;;;;;10.77;9.43;;;;;;;;;;4976082;28;20406;-80
2023/04/22 13:59:22;;;;;;;12.77;10.50;;;;;;;;;;4992881;28;20490;-78
2023/04/22 14:01:48;;;;;;;13.40;10.88;;;;;;;;;;4965611;28;20974;-80
2023/04/22 14:04:15;;;;;;;19.20;12.05;;;;;;;;;;4961424;28;20422;-76
2023/04/22 14:06:41;;;;;;;17.20;12.05;;;;;;;;;;4975152;28;20434;-77
2023/04/22 14:09:07;;;;;;;13.05;11.57;;;;;;;;;;4968593;28;20429;-77